sensor_id;sensor_type;location;lat;lon;timestamp;temperature;humidity
15341;DHT22;7770;52.158;5.372;2023-06-14T00:00:58;18.80;92.60
15341;DHT22;7770;52.158;5.372;2023-06-14T00:03:44;18.70;92.60
15341;DHT22;7770;52.158;5.372;2023-06-14T00:06:30;18.70;92.70
15341;DHT22;7770;52.158;5.372;2023-06-14T00:09:16;18.70;93.10
15341;DHT22;7770;52.158;5.372;2023-06-14T00:12:03;18.60;92.70
15341;DHT22;7770;52.158;5.372;2023-06-14T00:14:49;18.60;92.80
15341;DHT22;7770;52.158;5.372;2023-06-14T00:17:36;18.70;92.70
15341;DHT22;7770;52.158;5.372;2023-06-14T00:20:24;18.60;92.70
15341;DHT22;7770;52.158;5.372;2023-06-14T00:23:11;18.60;92.80
15341;DHT22;7770;52.158;5.372;2023-06-14T00:25:57;18.60;92.90
15341;DHT22;7770;52.158;5.372;2023-06-14T00:28:43;18.60;92.70
15341;DHT22;7770;52.158;5.372;2023-06-14T00:31:29;18.60;92.70
15341;DHT22;7770;52.158;5.372;2023-06-14T00:34:15;18.60;92.70
15341;DHT22;7770;52.158;5.372;2023-06-14T00:37:01;18.60;92.70
15341;DHT22;7770;52.158;5.372;2023-06-14T00:39:47;18.50;92.60
15341;DHT22;7770;52.158;5.372;2023-06-14T00:42:33;18.60;92.60
15341;DHT22;7770;52.158;5.372;2023-06-14T00:45:19;18.50;92.60
15341;DHT22;7770;52.158;5.372;2023-06-14T00:48:06;18.50;92.60
15341;DHT22;7770;52.158;5.372;2023-06-14T00:50:52;18.50;92.50
15341;DHT22;7770;52.158;5.372;2023-06-14T00:53:39;18.50;92.50
15341;DHT22;7770;52.158;5.372;2023-06-14T00:56:26;18.50;92.50
15341;DHT22;7770;52.158;5.372;2023-06-14T00:59:13;18.50;92.50
15341;DHT22;7770;52.158;5.372;2023-06-14T01:02:00;18.50;92.50
15341;DHT22;7770;52.158;5.372;2023-06-14T01:04:48;18.50;92.50
15341;DHT22;7770;52.158;5.372;2023-06-14T01:14:00;18.30;92.60
15341;DHT22;7770;52.158;5.372;2023-06-14T01:16:49;18.30;92.60
15341;DHT22;7770;52.158;5.372;2023-06-14T01:19:38;18.30;92.60
15341;DHT22;7770;52.158;5.372;2023-06-14T01:22:28;18.30;92.70
15341;DHT22;7770;52.158;5.372;2023-06-14T01:25:14;18.30;92.80
15341;DHT22;7770;52.158;5.372;2023-06-14T01:28:05;18.20;93.10
15341;DHT22;7770;52.158;5.372;2023-06-14T01:30:55;18.10;92.90
15341;DHT22;7770;52.158;5.372;2023-06-14T01:33:42;18.00;92.90
15341;DHT22;7770;52.158;5.372;2023-06-14T01:36:28;18.10;92.90
15341;DHT22;7770;52.158;5.372;2023-06-14T01:39:15;18.10;93.00
15341;DHT22;7770;52.158;5.372;2023-06-14T01:42:01;18.10;92.90
15341;DHT22;7770;52.158;5.372;2023-06-14T01:44:48;18.00;93.00
15341;DHT22;7770;52.158;5.372;2023-06-14T01:47:35;17.90;93.00
15341;DHT22;7770;52.158;5.372;2023-06-14T01:50:21;17.90;93.10
15341;DHT22;7770;52.158;5.372;2023-06-14T01:53:08;17.90;93.10
15341;DHT22;7770;52.158;5.372;2023-06-14T01:55:55;17.90;93.20
15341;DHT22;7770;52.158;5.372;2023-06-14T01:58:41;17.90;93.10
15341;DHT22;7770;52.158;5.372;2023-06-14T02:01:27;17.80;93.50
15341;DHT22;7770;52.158;5.372;2023-06-14T02:04:13;17.80;93.20
15341;DHT22;7770;52.158;5.372;2023-06-14T02:06:59;17.70;93.30
15341;DHT22;7770;52.158;5.372;2023-06-14T02:09:45;17.70;93.40
15341;DHT22;7770;52.158;5.372;2023-06-14T02:12:31;17.60;93.60
15341;DHT22;7770;52.158;5.372;2023-06-14T02:15:17;17.40;94.10
15341;DHT22;7770;52.158;5.372;2023-06-14T02:18:05;17.40;94.00
15341;DHT22;7770;52.158;5.372;2023-06-14T02:20:51;17.40;93.90
15341;DHT22;7770;52.158;5.372;2023-06-14T02:23:37;17.40;94.00
15341;DHT22;7770;52.158;5.372;2023-06-14T02:26:23;17.40;94.00
15341;DHT22;7770;52.158;5.372;2023-06-14T02:29:09;17.30;94.10
15341;DHT22;7770;52.158;5.372;2023-06-14T02:31:57;17.30;94.20
15341;DHT22;7770;52.158;5.372;2023-06-14T02:34:43;17.20;94.30
15341;DHT22;7770;52.158;5.372;2023-06-14T02:37:29;17.20;94.30
15341;DHT22;7770;52.158;5.372;2023-06-14T02:40:15;17.10;94.30
15341;DHT22;7770;52.158;5.372;2023-06-14T02:43:02;17.10;94.30
15341;DHT22;7770;52.158;5.372;2023-06-14T02:45:48;17.10;94.80
15341;DHT22;7770;52.158;5.372;2023-06-14T02:48:34;17.00;94.60
15341;DHT22;7770;52.158;5.372;2023-06-14T02:51:19;17.00;94.60
15341;DHT22;7770;52.158;5.372;2023-06-14T02:54:06;16.90;94.70
15341;DHT22;7770;52.158;5.372;2023-06-14T02:56:52;16.90;94.70
15341;DHT22;7770;52.158;5.372;2023-06-14T02:59:38;16.80;94.80
15341;DHT22;7770;52.158;5.372;2023-06-14T03:02:24;16.70;95.00
15341;DHT22;7770;52.158;5.372;2023-06-14T03:05:09;16.70;95.20
15341;DHT22;7770;52.158;5.372;2023-06-14T03:07:55;16.70;95.00
15341;DHT22;7770;52.158;5.372;2023-06-14T03:10:43;16.70;95.10
15341;DHT22;7770;52.158;5.372;2023-06-14T03:13:29;16.60;95.20
15341;DHT22;7770;52.158;5.372;2023-06-14T03:16:18;16.60;95.20
15341;DHT22;7770;52.158;5.372;2023-06-14T03:19:05;16.50;95.40
15341;DHT22;7770;52.158;5.372;2023-06-14T03:21:51;16.40;95.50
15341;DHT22;7770;52.158;5.372;2023-06-14T03:24:39;16.40;95.50
15341;DHT22;7770;52.158;5.372;2023-06-14T03:27:25;16.40;95.60
15341;DHT22;7770;52.158;5.372;2023-06-14T03:30:11;16.40;95.60
15341;DHT22;7770;52.158;5.372;2023-06-14T03:32:58;16.40;95.90
15341;DHT22;7770;52.158;5.372;2023-06-14T03:35:46;16.40;95.90
15341;DHT22;7770;52.158;5.372;2023-06-14T03:38:32;16.30;95.90
15341;DHT22;7770;52.158;5.372;2023-06-14T03:41:18;16.30;96.20
15341;DHT22;7770;52.158;5.372;2023-06-14T03:44:04;16.30;96.30
15341;DHT22;7770;52.158;5.372;2023-06-14T03:46:50;16.30;96.20
15341;DHT22;7770;52.158;5.372;2023-06-14T03:49:37;16.30;96.10
15341;DHT22;7770;52.158;5.372;2023-06-14T03:52:23;16.30;96.10
15341;DHT22;7770;52.158;5.372;2023-06-14T03:55:09;16.30;96.30
15341;DHT22;7770;52.158;5.372;2023-06-14T03:57:56;16.30;96.40
15341;DHT22;7770;52.158;5.372;2023-06-14T04:00:42;16.30;96.20
15341;DHT22;7770;52.158;5.372;2023-06-14T04:03:28;16.20;96.30
15341;DHT22;7770;52.158;5.372;2023-06-14T04:06:15;16.20;96.50
15341;DHT22;7770;52.158;5.372;2023-06-14T04:09:04;16.20;96.50
15341;DHT22;7770;52.158;5.372;2023-06-14T04:11:52;16.30;96.40
15341;DHT22;7770;52.158;5.372;2023-06-14T04:14:39;16.20;96.30
15341;DHT22;7770;52.158;5.372;2023-06-14T04:17:26;16.20;96.40
15341;DHT22;7770;52.158;5.372;2023-06-14T04:20:12;16.20;96.50
15341;DHT22;7770;52.158;5.372;2023-06-14T04:23:14;16.20;96.50
15341;DHT22;7770;52.158;5.372;2023-06-14T04:26:03;16.30;96.60
15341;DHT22;7770;52.158;5.372;2023-06-14T04:28:50;16.30;96.50
15341;DHT22;7770;52.158;5.372;2023-06-14T04:31:36;16.30;96.60
15341;DHT22;7770;52.158;5.372;2023-06-14T04:34:26;16.30;96.60
15341;DHT22;7770;52.158;5.372;2023-06-14T04:37:15;16.30;96.60
15341;DHT22;7770;52.158;5.372;2023-06-14T04:40:01;16.40;96.80
15341;DHT22;7770;52.158;5.372;2023-06-14T04:42:50;16.50;96.80
15341;DHT22;7770;52.158;5.372;2023-06-14T04:45:36;16.50;96.60
15341;DHT22;7770;52.158;5.372;2023-06-14T04:48:22;16.50;96.60
15341;DHT22;7770;52.158;5.372;2023-06-14T04:51:09;16.60;96.50
15341;DHT22;7770;52.158;5.372;2023-06-14T04:53:58;16.60;96.50
15341;DHT22;7770;52.158;5.372;2023-06-14T04:56:45;16.70;96.50
15341;DHT22;7770;52.158;5.372;2023-06-14T04:59:32;16.80;96.40
15341;DHT22;7770;52.158;5.372;2023-06-14T05:02:18;16.90;96.30
15341;DHT22;7770;52.158;5.372;2023-06-14T05:05:05;16.80;96.30
15341;DHT22;7770;52.158;5.372;2023-06-14T05:07:53;16.90;96.40
15341;DHT22;7770;52.158;5.372;2023-06-14T05:10:39;17.00;96.10
15341;DHT22;7770;52.158;5.372;2023-06-14T05:13:25;17.00;96.20
15341;DHT22;7770;52.158;5.372;2023-06-14T05:16:13;17.20;96.20
15341;DHT22;7770;52.158;5.372;2023-06-14T05:19:01;17.20;95.80
15341;DHT22;7770;52.158;5.372;2023-06-14T05:21:48;17.30;95.90
15341;DHT22;7770;52.158;5.372;2023-06-14T05:24:34;17.60;95.60
15341;DHT22;7770;52.158;5.372;2023-06-14T05:27:20;18.60;94.50
15341;DHT22;7770;52.158;5.372;2023-06-14T05:30:07;19.70;92.60
15341;DHT22;7770;52.158;5.372;2023-06-14T05:32:54;20.30;91.70
15341;DHT22;7770;52.158;5.372;2023-06-14T05:35:40;21.00;91.00
15341;DHT22;7770;52.158;5.372;2023-06-14T05:38:26;21.90;90.10
15341;DHT22;7770;52.158;5.372;2023-06-14T05:41:13;22.50;88.20
15341;DHT22;7770;52.158;5.372;2023-06-14T05:43:59;22.40;87.70
15341;DHT22;7770;52.158;5.372;2023-06-14T05:46:46;22.20;87.80
15341;DHT22;7770;52.158;5.372;2023-06-14T05:49:32;22.20;88.30
15341;DHT22;7770;52.158;5.372;2023-06-14T05:52:18;22.50;86.60
15341;DHT22;7770;52.158;5.372;2023-06-14T05:55:04;23.10;85.50
15341;DHT22;7770;52.158;5.372;2023-06-14T05:57:51;22.60;87.00
15341;DHT22;7770;52.158;5.372;2023-06-14T06:00:37;22.40;87.60
15341;DHT22;7770;52.158;5.372;2023-06-14T06:03:23;23.20;86.10
15341;DHT22;7770;52.158;5.372;2023-06-14T06:06:09;22.80;86.50
15341;DHT22;7770;52.158;5.372;2023-06-14T06:08:56;23.40;85.60
15341;DHT22;7770;52.158;5.372;2023-06-14T06:11:42;22.40;86.60
15341;DHT22;7770;52.158;5.372;2023-06-14T06:14:28;21.90;87.80
15341;DHT22;7770;52.158;5.372;2023-06-14T06:17:14;22.00;88.20
15341;DHT22;7770;52.158;5.372;2023-06-14T06:20:00;22.80;86.10
15341;DHT22;7770;52.158;5.372;2023-06-14T06:22:46;22.90;85.30
15341;DHT22;7770;52.158;5.372;2023-06-14T06:25:32;23.60;84.40
15341;DHT22;7770;52.158;5.372;2023-06-14T06:28:18;22.60;85.70
15341;DHT22;7770;52.158;5.372;2023-06-14T06:31:04;21.60;88.40
15341;DHT22;7770;52.158;5.372;2023-06-14T06:33:51;21.20;89.40
15341;DHT22;7770;52.158;5.372;2023-06-14T06:36:36;21.20;89.60
15341;DHT22;7770;52.158;5.372;2023-06-14T06:39:22;20.90;90.10
15341;DHT22;7770;52.158;5.372;2023-06-14T06:42:08;21.20;90.20
15341;DHT22;7770;52.158;5.372;2023-06-14T06:44:54;21.10;90.30
15341;DHT22;7770;52.158;5.372;2023-06-14T06:47:40;21.20;90.20
15341;DHT22;7770;52.158;5.372;2023-06-14T06:50:26;21.20;90.00
15341;DHT22;7770;52.158;5.372;2023-06-14T06:53:12;21.20;90.00
15341;DHT22;7770;52.158;5.372;2023-06-14T06:55:58;21.10;90.50
15341;DHT22;7770;52.158;5.372;2023-06-14T06:58:45;21.40;90.10
15341;DHT22;7770;52.158;5.372;2023-06-14T07:01:31;21.30;90.00
15341;DHT22;7770;52.158;5.372;2023-06-14T07:04:19;21.20;90.20
15341;DHT22;7770;52.158;5.372;2023-06-14T07:07:05;21.30;89.50
15341;DHT22;7770;52.158;5.372;2023-06-14T07:09:51;21.60;89.80
15341;DHT22;7770;52.158;5.372;2023-06-14T07:12:38;21.90;89.00
15341;DHT22;7770;52.158;5.372;2023-06-14T07:15:25;22.60;87.10
15341;DHT22;7770;52.158;5.372;2023-06-14T07:18:11;22.90;85.60
15341;DHT22;7770;52.158;5.372;2023-06-14T07:20:57;24.10;83.80
15341;DHT22;7770;52.158;5.372;2023-06-14T07:23:43;24.20;81.70
15341;DHT22;7770;52.158;5.372;2023-06-14T07:26:29;25.30;80.00
15341;DHT22;7770;52.158;5.372;2023-06-14T07:29:15;25.40;79.50
15341;DHT22;7770;52.158;5.372;2023-06-14T07:32:02;25.60;79.30
15341;DHT22;7770;52.158;5.372;2023-06-14T07:34:48;26.50;77.70
15341;DHT22;7770;52.158;5.372;2023-06-14T07:37:34;26.60;76.00
15341;DHT22;7770;52.158;5.372;2023-06-14T07:40:21;27.20;75.90
15341;DHT22;7770;52.158;5.372;2023-06-14T07:43:07;27.60;75.30
15341;DHT22;7770;52.158;5.372;2023-06-14T07:45:53;27.80;74.50
15341;DHT22;7770;52.158;5.372;2023-06-14T07:48:39;28.30;73.90
15341;DHT22;7770;52.158;5.372;2023-06-14T07:51:25;27.30;74.20
15341;DHT22;7770;52.158;5.372;2023-06-14T07:54:11;27.60;74.90
15341;DHT22;7770;52.158;5.372;2023-06-14T07:56:57;28.30;73.50
15341;DHT22;7770;52.158;5.372;2023-06-14T07:59:46;29.20;72.00
15341;DHT22;7770;52.158;5.372;2023-06-14T08:02:32;28.60;72.30
15341;DHT22;7770;52.158;5.372;2023-06-14T08:05:18;28.80;72.50
15341;DHT22;7770;52.158;5.372;2023-06-14T08:08:04;29.40;70.90
15341;DHT22;7770;52.158;5.372;2023-06-14T08:10:51;28.50;72.00
15341;DHT22;7770;52.158;5.372;2023-06-14T08:13:36;28.60;70.50
15341;DHT22;7770;52.158;5.372;2023-06-14T08:16:23;29.10;70.90
15341;DHT22;7770;52.158;5.372;2023-06-14T08:19:09;29.10;69.90
15341;DHT22;7770;52.158;5.372;2023-06-14T08:21:55;28.70;69.40
15341;DHT22;7770;52.158;5.372;2023-06-14T08:24:41;27.70;71.70
15341;DHT22;7770;52.158;5.372;2023-06-14T08:27:28;28.70;71.30
15341;DHT22;7770;52.158;5.372;2023-06-14T08:30:14;29.80;69.60
15341;DHT22;7770;52.158;5.372;2023-06-14T08:33:00;28.50;70.60
15341;DHT22;7770;52.158;5.372;2023-06-14T08:35:46;29.60;69.20
15341;DHT22;7770;52.158;5.372;2023-06-14T08:38:33;28.20;70.30
15341;DHT22;7770;52.158;5.372;2023-06-14T08:41:22;28.60;70.90
15341;DHT22;7770;52.158;5.372;2023-06-14T08:44:10;30.40;68.50
15341;DHT22;7770;52.158;5.372;2023-06-14T08:46:56;31.30;66.70
15341;DHT22;7770;52.158;5.372;2023-06-14T08:49:46;32.10;65.60
15341;DHT22;7770;52.158;5.372;2023-06-14T08:52:35;31.60;67.10
15341;DHT22;7770;52.158;5.372;2023-06-14T08:55:27;31.40;65.70
15341;DHT22;7770;52.158;5.372;2023-06-14T08:58:14;31.50;65.80
15341;DHT22;7770;52.158;5.372;2023-06-14T09:01:01;32.70;66.10
15341;DHT22;7770;52.158;5.372;2023-06-14T09:03:48;31.80;63.90
15341;DHT22;7770;52.158;5.372;2023-06-14T09:06:35;31.00;64.30
15341;DHT22;7770;52.158;5.372;2023-06-14T09:09:22;29.10;66.40
15341;DHT22;7770;52.158;5.372;2023-06-14T09:12:12;28.90;67.70
15341;DHT22;7770;52.158;5.372;2023-06-14T09:14:59;30.10;65.60
15341;DHT22;7770;52.158;5.372;2023-06-14T09:17:45;30.20;65.10
15341;DHT22;7770;52.158;5.372;2023-06-14T09:20:31;29.80;65.50
15341;DHT22;7770;52.158;5.372;2023-06-14T09:23:20;30.20;66.00
15341;DHT22;7770;52.158;5.372;2023-06-14T09:26:09;29.80;64.90
15341;DHT22;7770;52.158;5.372;2023-06-14T09:28:57;29.00;66.30
15341;DHT22;7770;52.158;5.372;2023-06-14T09:31:46;29.80;67.00
15341;DHT22;7770;52.158;5.372;2023-06-14T09:34:34;30.60;64.90
15341;DHT22;7770;52.158;5.372;2023-06-14T09:37:28;30.30;64.70
15341;DHT22;7770;52.158;5.372;2023-06-14T09:40:20;31.40;63.80
15341;DHT22;7770;52.158;5.372;2023-06-14T09:43:07;30.90;64.10
15341;DHT22;7770;52.158;5.372;2023-06-14T09:45:56;30.80;63.80
15341;DHT22;7770;52.158;5.372;2023-06-14T09:48:42;31.70;62.90
15341;DHT22;7770;52.158;5.372;2023-06-14T09:51:28;32.10;61.60
15341;DHT22;7770;52.158;5.372;2023-06-14T09:54:22;30.40;62.50
15341;DHT22;7770;52.158;5.372;2023-06-14T09:57:13;30.40;64.00
15341;DHT22;7770;52.158;5.372;2023-06-14T10:00:02;31.70;62.60
15341;DHT22;7770;52.158;5.372;2023-06-14T10:02:54;29.70;64.00
15341;DHT22;7770;52.158;5.372;2023-06-14T10:05:48;29.70;65.20
15341;DHT22;7770;52.158;5.372;2023-06-14T10:08:36;29.30;66.00
15341;DHT22;7770;52.158;5.372;2023-06-14T10:11:24;28.60;66.60
15341;DHT22;7770;52.158;5.372;2023-06-14T10:14:12;29.40;66.30
15341;DHT22;7770;52.158;5.372;2023-06-14T10:17:04;30.40;65.00
15341;DHT22;7770;52.158;5.372;2023-06-14T10:19:58;31.80;63.30
15341;DHT22;7770;52.158;5.372;2023-06-14T10:23:01;30.30;62.90
15341;DHT22;7770;52.158;5.372;2023-06-14T10:25:50;30.80;62.70
15341;DHT22;7770;52.158;5.372;2023-06-14T10:28:57;30.20;65.40
15341;DHT22;7770;52.158;5.372;2023-06-14T10:31:47;31.10;63.10
15341;DHT22;7770;52.158;5.372;2023-06-14T10:34:38;30.60;64.20
15341;DHT22;7770;52.158;5.372;2023-06-14T10:37:25;31.40;64.10
15341;DHT22;7770;52.158;5.372;2023-06-14T10:40:30;31.10;64.00
15341;DHT22;7770;52.158;5.372;2023-06-14T10:43:24;30.50;63.30
15341;DHT22;7770;52.158;5.372;2023-06-14T10:46:16;30.30;63.50
15341;DHT22;7770;52.158;5.372;2023-06-14T10:49:04;31.90;63.50
15341;DHT22;7770;52.158;5.372;2023-06-14T10:51:51;30.70;64.10
15341;DHT22;7770;52.158;5.372;2023-06-14T10:54:38;30.00;64.30
15341;DHT22;7770;52.158;5.372;2023-06-14T10:57:51;30.70;64.00
15341;DHT22;7770;52.158;5.372;2023-06-14T11:00:43;29.80;64.90
15341;DHT22;7770;52.158;5.372;2023-06-14T11:03:43;31.30;63.90
15341;DHT22;7770;52.158;5.372;2023-06-14T11:06:49;31.10;62.80
15341;DHT22;7770;52.158;5.372;2023-06-14T11:10:05;30.70;63.70
15341;DHT22;7770;52.158;5.372;2023-06-14T11:12:56;31.70;62.40
15341;DHT22;7770;52.158;5.372;2023-06-14T11:15:47;31.50;64.30
15341;DHT22;7770;52.158;5.372;2023-06-14T11:18:34;30.50;64.70
15341;DHT22;7770;52.158;5.372;2023-06-14T11:21:22;29.70;64.40
15341;DHT22;7770;52.158;5.372;2023-06-14T11:24:11;30.30;63.80
15341;DHT22;7770;52.158;5.372;2023-06-14T11:26:57;30.10;65.40
15341;DHT22;7770;52.158;5.372;2023-06-14T11:29:49;29.10;65.50
15341;DHT22;7770;52.158;5.372;2023-06-14T11:32:37;30.40;63.60
15341;DHT22;7770;52.158;5.372;2023-06-14T11:35:24;30.90;63.50
15341;DHT22;7770;52.158;5.372;2023-06-14T11:38:10;31.60;64.20
15341;DHT22;7770;52.158;5.372;2023-06-14T11:41:00;32.10;63.00
15341;DHT22;7770;52.158;5.372;2023-06-14T11:43:46;31.50;63.10
15341;DHT22;7770;52.158;5.372;2023-06-14T11:46:32;30.50;65.10
15341;DHT22;7770;52.158;5.372;2023-06-14T11:49:18;29.90;65.20
15341;DHT22;7770;52.158;5.372;2023-06-14T11:52:04;28.90;66.70
15341;DHT22;7770;52.158;5.372;2023-06-14T11:54:51;29.60;66.30
15341;DHT22;7770;52.158;5.372;2023-06-14T11:57:37;29.00;66.50
15341;DHT22;7770;52.158;5.372;2023-06-14T12:00:27;29.30;66.80
15341;DHT22;7770;52.158;5.372;2023-06-14T12:03:13;28.70;67.20
15341;DHT22;7770;52.158;5.372;2023-06-14T12:06:04;29.10;66.20
15341;DHT22;7770;52.158;5.372;2023-06-14T12:08:55;29.10;65.30
15341;DHT22;7770;52.158;5.372;2023-06-14T12:11:42;28.00;66.20
15341;DHT22;7770;52.158;5.372;2023-06-14T12:14:31;28.00;67.70
15341;DHT22;7770;52.158;5.372;2023-06-14T12:17:18;28.90;68.10
15341;DHT22;7770;52.158;5.372;2023-06-14T12:20:12;29.00;66.80
15341;DHT22;7770;52.158;5.372;2023-06-14T12:23:03;29.10;67.40
15341;DHT22;7770;52.158;5.372;2023-06-14T12:25:49;29.40;66.10
15341;DHT22;7770;52.158;5.372;2023-06-14T12:28:37;28.20;68.50
15341;DHT22;7770;52.158;5.372;2023-06-14T12:31:25;28.50;68.80
15341;DHT22;7770;52.158;5.372;2023-06-14T12:34:12;28.70;68.50
15341;DHT22;7770;52.158;5.372;2023-06-14T12:36:58;27.50;69.20
15341;DHT22;7770;52.158;5.372;2023-06-14T12:39:44;27.40;70.70
15341;DHT22;7770;52.158;5.372;2023-06-14T12:42:30;27.80;69.80
15341;DHT22;7770;52.158;5.372;2023-06-14T12:45:16;27.70;69.50
15341;DHT22;7770;52.158;5.372;2023-06-14T12:48:02;27.80;70.10
15341;DHT22;7770;52.158;5.372;2023-06-14T12:50:48;27.70;70.50
15341;DHT22;7770;52.158;5.372;2023-06-14T12:53:34;27.40;70.80
15341;DHT22;7770;52.158;5.372;2023-06-14T12:56:20;27.50;73.00
15341;DHT22;7770;52.158;5.372;2023-06-14T12:59:06;27.30;71.40
15341;DHT22;7770;52.158;5.372;2023-06-14T13:01:53;27.50;70.90
15341;DHT22;7770;52.158;5.372;2023-06-14T13:04:39;27.10;70.20
15341;DHT22;7770;52.158;5.372;2023-06-14T13:07:25;27.20;70.20
15341;DHT22;7770;52.158;5.372;2023-06-14T13:10:11;27.30;70.20
15341;DHT22;7770;52.158;5.372;2023-06-14T13:12:57;26.90;69.10
15341;DHT22;7770;52.158;5.372;2023-06-14T13:15:45;26.70;69.70
15341;DHT22;7770;52.158;5.372;2023-06-14T13:18:32;26.40;70.30
15341;DHT22;7770;52.158;5.372;2023-06-14T13:21:18;26.50;69.40
15341;DHT22;7770;52.158;5.372;2023-06-14T13:24:04;26.70;69.90
15341;DHT22;7770;52.158;5.372;2023-06-14T13:26:50;26.60;70.00
15341;DHT22;7770;52.158;5.372;2023-06-14T13:29:36;26.30;70.90
15341;DHT22;7770;52.158;5.372;2023-06-14T13:32:23;26.10;72.10
15341;DHT22;7770;52.158;5.372;2023-06-14T13:35:09;26.20;71.20
15341;DHT22;7770;52.158;5.372;2023-06-14T13:37:55;26.30;71.00
15341;DHT22;7770;52.158;5.372;2023-06-14T13:40:41;26.50;71.90
15341;DHT22;7770;52.158;5.372;2023-06-14T13:43:27;26.40;70.60
15341;DHT22;7770;52.158;5.372;2023-06-14T13:46:13;26.00;71.70
15341;DHT22;7770;52.158;5.372;2023-06-14T13:48:59;26.00;71.90
15341;DHT22;7770;52.158;5.372;2023-06-14T13:51:46;26.00;71.40
15341;DHT22;7770;52.158;5.372;2023-06-14T13:54:32;26.00;70.50
15341;DHT22;7770;52.158;5.372;2023-06-14T13:57:19;26.10;72.30
15341;DHT22;7770;52.158;5.372;2023-06-14T14:00:06;25.90;73.30
15341;DHT22;7770;52.158;5.372;2023-06-14T14:02:54;26.10;72.80
15341;DHT22;7770;52.158;5.372;2023-06-14T14:05:42;26.00;72.20
15341;DHT22;7770;52.158;5.372;2023-06-14T14:08:28;25.90;72.60
15341;DHT22;7770;52.158;5.372;2023-06-14T14:11:14;26.00;71.70
15341;DHT22;7770;52.158;5.372;2023-06-14T14:14:01;26.20;71.70
15341;DHT22;7770;52.158;5.372;2023-06-14T14:16:48;26.40;71.40
15341;DHT22;7770;52.158;5.372;2023-06-14T14:19:34;26.60;71.00
15341;DHT22;7770;52.158;5.372;2023-06-14T14:22:20;26.50;70.50
15341;DHT22;7770;52.158;5.372;2023-06-14T14:25:06;26.10;71.90
15341;DHT22;7770;52.158;5.372;2023-06-14T14:27:52;26.00;72.10
15341;DHT22;7770;52.158;5.372;2023-06-14T14:30:38;26.00;72.10
15341;DHT22;7770;52.158;5.372;2023-06-14T14:33:25;25.80;72.10
15341;DHT22;7770;52.158;5.372;2023-06-14T14:36:11;25.70;72.40
15341;DHT22;7770;52.158;5.372;2023-06-14T14:38:59;26.10;72.60
15341;DHT22;7770;52.158;5.372;2023-06-14T14:41:45;26.40;72.10
15341;DHT22;7770;52.158;5.372;2023-06-14T14:44:31;25.70;72.10
15341;DHT22;7770;52.158;5.372;2023-06-14T14:47:17;25.80;72.30
15341;DHT22;7770;52.158;5.372;2023-06-14T14:50:03;25.90;72.50
15341;DHT22;7770;52.158;5.372;2023-06-14T14:52:50;25.90;71.40
15341;DHT22;7770;52.158;5.372;2023-06-14T14:55:36;26.00;71.50
15341;DHT22;7770;52.158;5.372;2023-06-14T14:58:23;25.90;71.30
15341;DHT22;7770;52.158;5.372;2023-06-14T15:01:09;26.00;71.60
15341;DHT22;7770;52.158;5.372;2023-06-14T15:03:56;25.80;71.10
15341;DHT22;7770;52.158;5.372;2023-06-14T15:06:42;25.90;71.00
15341;DHT22;7770;52.158;5.372;2023-06-14T15:09:28;26.10;70.60
15341;DHT22;7770;52.158;5.372;2023-06-14T15:12:14;25.90;72.50
15341;DHT22;7770;52.158;5.372;2023-06-14T15:15:02;26.00;72.50
15341;DHT22;7770;52.158;5.372;2023-06-14T15:17:49;25.80;72.90
15341;DHT22;7770;52.158;5.372;2023-06-14T15:20:35;25.70;72.90
15341;DHT22;7770;52.158;5.372;2023-06-14T15:23:21;25.70;72.30
15341;DHT22;7770;52.158;5.372;2023-06-14T15:26:08;25.80;73.30
15341;DHT22;7770;52.158;5.372;2023-06-14T15:28:53;25.70;72.30
15341;DHT22;7770;52.158;5.372;2023-06-14T15:31:39;25.80;72.00
15341;DHT22;7770;52.158;5.372;2023-06-14T15:34:25;25.60;71.80
15341;DHT22;7770;52.158;5.372;2023-06-14T15:37:11;25.50;72.50
15341;DHT22;7770;52.158;5.372;2023-06-14T15:39:57;25.90;72.80
15341;DHT22;7770;52.158;5.372;2023-06-14T15:42:43;26.00;72.20
15341;DHT22;7770;52.158;5.372;2023-06-14T15:45:29;25.80;71.80
15341;DHT22;7770;52.158;5.372;2023-06-14T15:48:16;25.60;71.90
15341;DHT22;7770;52.158;5.372;2023-06-14T15:51:02;25.50;72.40
15341;DHT22;7770;52.158;5.372;2023-06-14T15:53:48;25.40;71.60
15341;DHT22;7770;52.158;5.372;2023-06-14T15:56:34;25.20;72.20
15341;DHT22;7770;52.158;5.372;2023-06-14T15:59:20;25.30;72.10
15341;DHT22;7770;52.158;5.372;2023-06-14T16:02:06;25.40;72.70
15341;DHT22;7770;52.158;5.372;2023-06-14T16:04:52;25.60;73.20
15341;DHT22;7770;52.158;5.372;2023-06-14T16:07:38;25.70;73.70
15341;DHT22;7770;52.158;5.372;2023-06-14T16:10:24;25.70;73.00
15341;DHT22;7770;52.158;5.372;2023-06-14T16:13:12;25.60;71.30
15341;DHT22;7770;52.158;5.372;2023-06-14T16:15:58;25.40;71.80
15341;DHT22;7770;52.158;5.372;2023-06-14T16:18:44;25.70;71.30
15341;DHT22;7770;52.158;5.372;2023-06-14T16:21:30;25.50;70.80
15341;DHT22;7770;52.158;5.372;2023-06-14T16:24:22;25.50;71.10
15341;DHT22;7770;52.158;5.372;2023-06-14T16:27:08;25.40;71.00
15341;DHT22;7770;52.158;5.372;2023-06-14T16:29:54;25.30;71.30
15341;DHT22;7770;52.158;5.372;2023-06-14T16:32:40;25.40;71.50
15341;DHT22;7770;52.158;5.372;2023-06-14T16:35:26;25.40;71.60
15341;DHT22;7770;52.158;5.372;2023-06-14T16:38:12;25.50;70.90
15341;DHT22;7770;52.158;5.372;2023-06-14T16:40:59;25.30;71.00
15341;DHT22;7770;52.158;5.372;2023-06-14T16:43:45;25.20;72.50
15341;DHT22;7770;52.158;5.372;2023-06-14T16:46:32;25.30;73.10
15341;DHT22;7770;52.158;5.372;2023-06-14T16:49:19;25.40;73.10
15341;DHT22;7770;52.158;5.372;2023-06-14T16:52:05;25.30;73.50
15341;DHT22;7770;52.158;5.372;2023-06-14T16:54:52;25.30;74.00
15341;DHT22;7770;52.158;5.372;2023-06-14T16:57:38;25.30;73.70
15341;DHT22;7770;52.158;5.372;2023-06-14T17:00:25;25.20;73.40
15341;DHT22;7770;52.158;5.372;2023-06-14T17:03:12;25.20;73.40
15341;DHT22;7770;52.158;5.372;2023-06-14T17:05:58;25.00;73.70
15341;DHT22;7770;52.158;5.372;2023-06-14T17:08:44;25.00;74.00
15341;DHT22;7770;52.158;5.372;2023-06-14T17:11:30;24.90;73.60
15341;DHT22;7770;52.158;5.372;2023-06-14T17:14:16;25.00;74.00
15341;DHT22;7770;52.158;5.372;2023-06-14T17:17:02;25.10;74.40
15341;DHT22;7770;52.158;5.372;2023-06-14T17:19:48;25.20;73.60
15341;DHT22;7770;52.158;5.372;2023-06-14T17:22:34;25.00;73.90
15341;DHT22;7770;52.158;5.372;2023-06-14T17:25:20;25.00;75.30
15341;DHT22;7770;52.158;5.372;2023-06-14T17:28:06;25.10;74.30
15341;DHT22;7770;52.158;5.372;2023-06-14T17:30:52;24.80;73.70
15341;DHT22;7770;52.158;5.372;2023-06-14T17:33:38;24.70;74.20
15341;DHT22;7770;52.158;5.372;2023-06-14T17:36:24;24.80;74.00
15341;DHT22;7770;52.158;5.372;2023-06-14T17:39:10;24.90;73.90
15341;DHT22;7770;52.158;5.372;2023-06-14T17:41:56;24.70;73.40
15341;DHT22;7770;52.158;5.372;2023-06-14T17:44:42;24.60;74.00
15341;DHT22;7770;52.158;5.372;2023-06-14T17:47:29;24.60;74.80
15341;DHT22;7770;52.158;5.372;2023-06-14T17:50:15;24.70;74.70
15341;DHT22;7770;52.158;5.372;2023-06-14T17:53:01;24.60;74.30
15341;DHT22;7770;52.158;5.372;2023-06-14T17:55:49;24.40;74.90
15341;DHT22;7770;52.158;5.372;2023-06-14T17:58:35;24.40;75.60